sensor_id;sensor_type;location;lat;lon;timestamp;P1;durP1;ratioP1;P2;durP2;ratioP2
22922;SDS011;11627;51.322;22.816;2022-07-09T00:00:55;3.72;;;2.47;;
22922;SDS011;11627;51.322;22.816;2022-07-09T00:03:23;3.03;;;2.22;;
22922;SDS011;11627;51.322;22.816;2022-07-09T00:05:50;5.63;;;2.67;;
22922;SDS011;11627;51.322;22.816;2022-07-09T00:08:16;5.65;;;2.60;;
22922;SDS011;11627;51.322;22.816;2022-07-09T00:10:43;5.53;;;2.70;;
22922;SDS011;11627;51.322;22.816;2022-07-09T00:13:12;4.13;;;2.30;;
22922;SDS011;11627;51.322;22.816;2022-07-09T00:15:40;5.82;;;2.50;;
22922;SDS011;11627;51.322;22.816;2022-07-09T00:18:07;8.38;;;2.90;;
22922;SDS011;11627;51.322;22.816;2022-07-09T00:20:34;4.18;;;2.47;;
22922;SDS011;11627;51.322;22.816;2022-07-09T00:23:02;6.90;;;2.25;;
22922;SDS011;11627;51.322;22.816;2022-07-09T00:25:28;4.88;;;2.90;;
22922;SDS011;11627;51.322;22.816;2022-07-09T00:27:56;4.07;;;2.40;;
22922;SDS011;11627;51.322;22.816;2022-07-09T00:30:22;6.53;;;2.60;;
22922;SDS011;11627;51.322;22.816;2022-07-09T00:32:49;4.00;;;3.00;;
22922;SDS011;11627;51.322;22.816;2022-07-09T00:35:16;10.60;;;2.70;;
22922;SDS011;11627;51.322;22.816;2022-07-09T00:37:44;5.80;;;3.08;;
22922;SDS011;11627;51.322;22.816;2022-07-09T00:40:11;5.38;;;2.90;;
22922;SDS011;11627;51.322;22.816;2022-07-09T00:42:37;3.05;;;2.75;;
22922;SDS011;11627;51.322;22.816;2022-07-09T00:45:03;4.85;;;2.72;;
22922;SDS011;11627;51.322;22.816;2022-07-09T00:47:33;5.40;;;2.70;;
22922;SDS011;11627;51.322;22.816;2022-07-09T00:49:59;4.15;;;2.90;;
22922;SDS011;11627;51.322;22.816;2022-07-09T00:52:28;5.03;;;2.85;;
22922;SDS011;11627;51.322;22.816;2022-07-09T00:54:57;4.97;;;3.00;;
22922;SDS011;11627;51.322;22.816;2022-07-09T00:57:27;4.95;;;3.20;;
22922;SDS011;11627;51.322;22.816;2022-07-09T00:59:53;4.88;;;2.90;;
22922;SDS011;11627;51.322;22.816;2022-07-09T01:02:20;6.57;;;3.03;;
22922;SDS011;11627;51.322;22.816;2022-07-09T01:04:48;8.23;;;2.97;;
22922;SDS011;11627;51.322;22.816;2022-07-09T01:07:13;10.70;;;3.38;;
22922;SDS011;11627;51.322;22.816;2022-07-09T01:09:40;5.93;;;2.95;;
22922;SDS011;11627;51.322;22.816;2022-07-09T01:12:06;5.40;;;2.80;;
22922;SDS011;11627;51.322;22.816;2022-07-09T01:14:34;11.90;;;3.58;;
22922;SDS011;11627;51.322;22.816;2022-07-09T01:17:01;6.57;;;3.05;;
22922;SDS011;11627;51.322;22.816;2022-07-09T01:19:33;5.18;;;2.80;;
22922;SDS011;11627;51.322;22.816;2022-07-09T01:22:00;3.50;;;2.90;;
22922;SDS011;11627;51.322;22.816;2022-07-09T01:24:28;10.02;;;3.17;;
22922;SDS011;11627;51.322;22.816;2022-07-09T01:26:55;9.88;;;3.70;;
22922;SDS011;11627;51.322;22.816;2022-07-09T01:29:22;7.22;;;3.13;;
22922;SDS011;11627;51.322;22.816;2022-07-09T01:31:50;5.32;;;2.95;;
22922;SDS011;11627;51.322;22.816;2022-07-09T01:34:16;3.28;;;2.97;;
22922;SDS011;11627;51.322;22.816;2022-07-09T01:36:44;4.18;;;2.60;;
22922;SDS011;11627;51.322;22.816;2022-07-09T01:39:11;8.90;;;3.08;;
22922;SDS011;11627;51.322;22.816;2022-07-09T01:41:37;6.35;;;3.58;;
22922;SDS011;11627;51.322;22.816;2022-07-09T01:44:06;7.20;;;2.83;;
22922;SDS011;11627;51.322;22.816;2022-07-09T01:46:33;6.88;;;2.72;;
22922;SDS011;11627;51.322;22.816;2022-07-09T01:49:01;5.25;;;3.05;;
22922;SDS011;11627;51.322;22.816;2022-07-09T01:51:28;2.97;;;2.70;;
22922;SDS011;11627;51.322;22.816;2022-07-09T01:53:55;6.65;;;3.25;;
22922;SDS011;11627;51.322;22.816;2022-07-09T01:56:22;5.68;;;3.20;;
22922;SDS011;11627;51.322;22.816;2022-07-09T01:58:49;6.72;;;3.00;;
22922;SDS011;11627;51.322;22.816;2022-07-09T02:01:16;5.88;;;2.80;;
22922;SDS011;11627;51.322;22.816;2022-07-09T02:03:43;9.68;;;3.60;;
22922;SDS011;11627;51.322;22.816;2022-07-09T02:06:09;8.93;;;3.10;;
22922;SDS011;11627;51.322;22.816;2022-07-09T02:08:36;7.88;;;2.95;;
22922;SDS011;11627;51.322;22.816;2022-07-09T02:11:05;5.05;;;2.95;;
22922;SDS011;11627;51.322;22.816;2022-07-09T02:13:33;7.53;;;2.83;;
22922;SDS011;11627;51.322;22.816;2022-07-09T02:16:01;10.75;;;3.28;;
22922;SDS011;11627;51.322;22.816;2022-07-09T02:18:28;4.32;;;3.20;;
22922;SDS011;11627;51.322;22.816;2022-07-09T02:20:55;10.07;;;3.10;;
22922;SDS011;11627;51.322;22.816;2022-07-09T02:23:23;6.13;;;3.50;;
22922;SDS011;11627;51.322;22.816;2022-07-09T02:25:50;8.55;;;2.90;;
22922;SDS011;11627;51.322;22.816;2022-07-09T02:28:17;6.78;;;3.35;;
22922;SDS011;11627;51.322;22.816;2022-07-09T02:30:44;5.53;;;3.08;;
22922;SDS011;11627;51.322;22.816;2022-07-09T02:33:11;6.22;;;2.92;;
22922;SDS011;11627;51.322;22.816;2022-07-09T02:35:38;3.83;;;3.00;;
22922;SDS011;11627;51.322;22.816;2022-07-09T02:38:05;6.82;;;3.42;;
22922;SDS011;11627;51.322;22.816;2022-07-09T02:40:31;9.35;;;3.80;;
22922;SDS011;11627;51.322;22.816;2022-07-09T02:42:58;8.48;;;3.65;;
22922;SDS011;11627;51.322;22.816;2022-07-09T02:45:23;6.55;;;3.47;;
22922;SDS011;11627;51.322;22.816;2022-07-09T02:47:50;8.57;;;3.42;;
22922;SDS011;11627;51.322;22.816;2022-07-09T02:50:15;10.73;;;3.30;;
22922;SDS011;11627;51.322;22.816;2022-07-09T02:52:42;8.77;;;3.00;;
22922;SDS011;11627;51.322;22.816;2022-07-09T02:55:08;7.88;;;3.42;;
22922;SDS011;11627;51.322;22.816;2022-07-09T02:57:35;4.07;;;3.10;;
22922;SDS011;11627;51.322;22.816;2022-07-09T03:00:02;4.00;;;3.30;;
22922;SDS011;11627;51.322;22.816;2022-07-09T03:02:30;5.57;;;2.88;;
22922;SDS011;11627;51.322;22.816;2022-07-09T03:04:58;8.32;;;3.15;;
22922;SDS011;11627;51.322;22.816;2022-07-09T03:07:25;7.53;;;3.00;;
22922;SDS011;11627;51.322;22.816;2022-07-09T03:09:51;6.13;;;3.30;;
22922;SDS011;11627;51.322;22.816;2022-07-09T03:12:19;9.77;;;3.08;;
22922;SDS011;11627;51.322;22.816;2022-07-09T03:14:45;12.05;;;3.00;;
22922;SDS011;11627;51.322;22.816;2022-07-09T03:17:13;5.78;;;3.00;;
22922;SDS011;11627;51.322;22.816;2022-07-09T03:19:39;11.30;;;3.25;;
22922;SDS011;11627;51.322;22.816;2022-07-09T03:22:06;7.82;;;3.25;;
22922;SDS011;11627;51.322;22.816;2022-07-09T03:24:33;8.35;;;3.33;;
22922;SDS011;11627;51.322;22.816;2022-07-09T03:27:00;4.18;;;3.40;;
22922;SDS011;11627;51.322;22.816;2022-07-09T03:29:27;12.05;;;3.70;;
22922;SDS011;11627;51.322;22.816;2022-07-09T03:31:54;7.40;;;3.50;;
22922;SDS011;11627;51.322;22.816;2022-07-09T03:34:19;8.95;;;3.55;;
22922;SDS011;11627;51.322;22.816;2022-07-09T03:36:46;11.13;;;3.70;;
22922;SDS011;11627;51.322;22.816;2022-07-09T03:39:13;11.82;;;3.72;;
22922;SDS011;11627;51.322;22.816;2022-07-09T03:41:40;6.70;;;3.50;;
22922;SDS011;11627;51.322;22.816;2022-07-09T03:44:07;9.32;;;2.90;;
22922;SDS011;11627;51.322;22.816;2022-07-09T03:46:34;7.43;;;3.70;;
22922;SDS011;11627;51.322;22.816;2022-07-09T03:49:00;7.63;;;4.47;;
22922;SDS011;11627;51.322;22.816;2022-07-09T03:51:27;5.28;;;3.35;;
22922;SDS011;11627;51.322;22.816;2022-07-09T03:53:54;9.27;;;3.40;;
22922;SDS011;11627;51.322;22.816;2022-07-09T03:56:22;7.28;;;3.20;;
22922;SDS011;11627;51.322;22.816;2022-07-09T03:58:49;6.20;;;3.70;;
22922;SDS011;11627;51.322;22.816;2022-07-09T04:01:16;9.98;;;3.30;;
22922;SDS011;11627;51.322;22.816;2022-07-09T04:03:43;8.57;;;3.15;;
22922;SDS011;11627;51.322;22.816;2022-07-09T04:06:10;8.50;;;3.83;;
22922;SDS011;11627;51.322;22.816;2022-07-09T04:08:37;8.00;;;3.60;;
22922;SDS011;11627;51.322;22.816;2022-07-09T04:11:04;9.20;;;4.28;;
22922;SDS011;11627;51.322;22.816;2022-07-09T04:13:31;6.70;;;3.95;;
22922;SDS011;11627;51.322;22.816;2022-07-09T04:15:58;14.13;;;4.65;;
22922;SDS011;11627;51.322;22.816;2022-07-09T04:18:25;10.98;;;4.63;;
22922;SDS011;11627;51.322;22.816;2022-07-09T04:20:52;15.07;;;4.50;;
22922;SDS011;11627;51.322;22.816;2022-07-09T04:23:20;16.05;;;5.93;;
22922;SDS011;11627;51.322;22.816;2022-07-09T04:25:47;8.25;;;5.32;;
22922;SDS011;11627;51.322;22.816;2022-07-09T04:28:17;11.55;;;6.05;;
22922;SDS011;11627;51.322;22.816;2022-07-09T04:30:45;10.57;;;6.35;;
22922;SDS011;11627;51.322;22.816;2022-07-09T04:33:12;14.02;;;6.85;;
22922;SDS011;11627;51.322;22.816;2022-07-09T04:35:39;8.55;;;6.80;;
22922;SDS011;11627;51.322;22.816;2022-07-09T04:38:06;14.05;;;7.22;;
22922;SDS011;11627;51.322;22.816;2022-07-09T04:40:33;16.52;;;6.82;;
22922;SDS011;11627;51.322;22.816;2022-07-09T04:43:00;13.55;;;6.45;;
22922;SDS011;11627;51.322;22.816;2022-07-09T04:45:27;15.50;;;6.68;;
22922;SDS011;11627;51.322;22.816;2022-07-09T04:47:56;10.52;;;6.55;;
22922;SDS011;11627;51.322;22.816;2022-07-09T04:50:25;11.30;;;5.95;;
22922;SDS011;11627;51.322;22.816;2022-07-09T04:52:52;7.03;;;4.43;;
22922;SDS011;11627;51.322;22.816;2022-07-09T04:55:18;6.75;;;4.40;;
22922;SDS011;11627;51.322;22.816;2022-07-09T04:57:48;8.38;;;4.25;;
22922;SDS011;11627;51.322;22.816;2022-07-09T05:00:15;9.68;;;4.45;;
22922;SDS011;11627;51.322;22.816;2022-07-09T05:02:43;6.65;;;3.90;;
22922;SDS011;11627;51.322;22.816;2022-07-09T05:05:09;5.80;;;3.70;;
22922;SDS011;11627;51.322;22.816;2022-07-09T05:07:37;5.60;;;3.15;;
22922;SDS011;11627;51.322;22.816;2022-07-09T05:10:04;4.88;;;3.58;;
22922;SDS011;11627;51.322;22.816;2022-07-09T05:12:32;12.05;;;3.55;;
22922;SDS011;11627;51.322;22.816;2022-07-09T05:14:59;4.60;;;2.85;;
22922;SDS011;11627;51.322;22.816;2022-07-09T05:17:26;3.78;;;2.90;;
22922;SDS011;11627;51.322;22.816;2022-07-09T05:19:53;10.43;;;2.50;;
22922;SDS011;11627;51.322;22.816;2022-07-09T05:22:20;5.63;;;2.55;;
22922;SDS011;11627;51.322;22.816;2022-07-09T05:24:49;2.38;;;1.95;;
22922;SDS011;11627;51.322;22.816;2022-07-09T05:27:15;5.43;;;1.73;;
22922;SDS011;11627;51.322;22.816;2022-07-09T05:29:42;2.72;;;1.60;;
22922;SDS011;11627;51.322;22.816;2022-07-09T05:32:09;4.03;;;1.70;;
22922;SDS011;11627;51.322;22.816;2022-07-09T05:34:36;5.47;;;1.65;;
22922;SDS011;11627;51.322;22.816;2022-07-09T05:37:03;4.05;;;1.55;;
22922;SDS011;11627;51.322;22.816;2022-07-09T05:39:31;5.53;;;1.73;;
22922;SDS011;11627;51.322;22.816;2022-07-09T05:41:58;6.38;;;1.80;;
22922;SDS011;11627;51.322;22.816;2022-07-09T05:44:25;6.22;;;1.77;;
22922;SDS011;11627;51.322;22.816;2022-07-09T05:46:52;3.72;;;1.60;;
22922;SDS011;11627;51.322;22.816;2022-07-09T05:49:20;6.45;;;1.90;;
22922;SDS011;11627;51.322;22.816;2022-07-09T05:51:46;2.25;;;1.55;;
22922;SDS011;11627;51.322;22.816;2022-07-09T05:54:13;4.65;;;1.60;;
22922;SDS011;11627;51.322;22.816;2022-07-09T05:56:40;3.42;;;1.67;;
22922;SDS011;11627;51.322;22.816;2022-07-09T05:59:07;4.50;;;1.60;;
22922;SDS011;11627;51.322;22.816;2022-07-09T06:01:34;3.78;;;1.50;;
22922;SDS011;11627;51.322;22.816;2022-07-09T06:04:09;4.40;;;1.60;;
22922;SDS011;11627;51.322;22.816;2022-07-09T06:06:36;7.20;;;1.58;;
22922;SDS011;11627;51.322;22.816;2022-07-09T06:09:03;2.90;;;1.52;;
22922;SDS011;11627;51.322;22.816;2022-07-09T06:11:30;5.45;;;1.30;;
22922;SDS011;11627;51.322;22.816;2022-07-09T06:13:57;3.85;;;1.40;;
22922;SDS011;11627;51.322;22.816;2022-07-09T06:16:24;5.05;;;1.10;;
22922;SDS011;11627;51.322;22.816;2022-07-09T06:18:51;3.22;;;1.20;;
22922;SDS011;11627;51.322;22.816;2022-07-09T06:21:18;6.75;;;1.30;;
22922;SDS011;11627;51.322;22.816;2022-07-09T06:23:45;2.83;;;1.00;;
22922;SDS011;11627;51.322;22.816;2022-07-09T06:26:13;3.25;;;1.33;;
22922;SDS011;11627;51.322;22.816;2022-07-09T06:28:40;2.70;;;1.00;;
22922;SDS011;11627;51.322;22.816;2022-07-09T06:31:07;4.13;;;1.00;;
22922;SDS011;11627;51.322;22.816;2022-07-09T06:33:34;4.28;;;1.10;;
22922;SDS011;11627;51.322;22.816;2022-07-09T06:36:01;2.75;;;1.25;;
22922;SDS011;11627;51.322;22.816;2022-07-09T06:38:28;3.40;;;1.00;;
22922;SDS011;11627;51.322;22.816;2022-07-09T06:40:54;2.50;;;1.00;;
22922;SDS011;11627;51.322;22.816;2022-07-09T06:43:22;3.05;;;1.02;;
22922;SDS011;11627;51.322;22.816;2022-07-09T06:45:49;2.70;;;0.88;;
22922;SDS011;11627;51.322;22.816;2022-07-09T06:48:16;2.83;;;1.17;;
22922;SDS011;11627;51.322;22.816;2022-07-09T06:50:43;2.08;;;0.65;;
22922;SDS011;11627;51.322;22.816;2022-07-09T06:53:10;2.78;;;1.35;;
22922;SDS011;11627;51.322;22.816;2022-07-09T06:55:37;3.53;;;1.17;;
22922;SDS011;11627;51.322;22.816;2022-07-09T06:58:04;2.28;;;0.90;;
22922;SDS011;11627;51.322;22.816;2022-07-09T07:00:31;4.10;;;0.98;;
22922;SDS011;11627;51.322;22.816;2022-07-09T07:02:59;3.72;;;1.20;;
22922;SDS011;11627;51.322;22.816;2022-07-09T07:05:27;1.75;;;0.98;;
22922;SDS011;11627;51.322;22.816;2022-07-09T07:07:54;4.47;;;0.98;;
22922;SDS011;11627;51.322;22.816;2022-07-09T07:10:21;2.83;;;1.02;;
22922;SDS011;11627;51.322;22.816;2022-07-09T07:12:48;4.53;;;1.10;;
22922;SDS011;11627;51.322;22.816;2022-07-09T07:15:14;4.78;;;1.10;;
22922;SDS011;11627;51.322;22.816;2022-07-09T07:17:41;2.22;;;0.90;;
22922;SDS011;11627;51.322;22.816;2022-07-09T07:20:06;2.20;;;1.00;;
22922;SDS011;11627;51.322;22.816;2022-07-09T07:22:34;3.80;;;1.10;;
22922;SDS011;11627;51.322;22.816;2022-07-09T07:25:02;2.50;;;0.90;;
22922;SDS011;11627;51.322;22.816;2022-07-09T07:27:29;2.25;;;0.70;;
22922;SDS011;11627;51.322;22.816;2022-07-09T07:29:56;9.52;;;0.85;;
22922;SDS011;11627;51.322;22.816;2022-07-09T07:32:23;1.80;;;0.80;;
22922;SDS011;11627;51.322;22.816;2022-07-09T07:34:49;3.42;;;0.70;;
22922;SDS011;11627;51.322;22.816;2022-07-09T07:37:15;5.50;;;1.10;;
22922;SDS011;11627;51.322;22.816;2022-07-09T07:39:42;2.20;;;0.98;;
22922;SDS011;11627;51.322;22.816;2022-07-09T07:42:08;2.17;;;0.77;;
22922;SDS011;11627;51.322;22.816;2022-07-09T07:44:35;2.08;;;1.33;;
22922;SDS011;11627;51.322;22.816;2022-07-09T07:47:03;0.95;;;0.65;;
22922;SDS011;11627;51.322;22.816;2022-07-09T07:49:30;3.03;;;0.80;;
22922;SDS011;11627;51.322;22.816;2022-07-09T07:51:56;2.65;;;1.10;;
22922;SDS011;11627;51.322;22.816;2022-07-09T07:54:23;1.08;;;0.50;;
22922;SDS011;11627;51.322;22.816;2022-07-09T07:56:51;4.07;;;0.80;;
22922;SDS011;11627;51.322;22.816;2022-07-09T07:59:18;1.02;;;0.47;;
22922;SDS011;11627;51.322;22.816;2022-07-09T08:01:44;3.03;;;0.70;;
22922;SDS011;11627;51.322;22.816;2022-07-09T08:04:11;3.05;;;0.45;;
22922;SDS011;11627;51.322;22.816;2022-07-09T08:06:38;1.73;;;0.80;;
22922;SDS011;11627;51.322;22.816;2022-07-09T08:09:05;0.77;;;0.47;;
22922;SDS011;11627;51.322;22.816;2022-07-09T08:11:31;1.23;;;0.30;;
22922;SDS011;11627;51.322;22.816;2022-07-09T08:13:57;4.57;;;0.30;;
22922;SDS011;11627;51.322;22.816;2022-07-09T08:16:24;1.23;;;0.47;;
22922;SDS011;11627;51.322;22.816;2022-07-09T08:18:51;1.17;;;0.47;;
22922;SDS011;11627;51.322;22.816;2022-07-09T08:21:18;2.05;;;0.60;;
22922;SDS011;11627;51.322;22.816;2022-07-09T08:23:45;1.13;;;0.60;;
22922;SDS011;11627;51.322;22.816;2022-07-09T08:26:18;0.80;;;0.50;;
22922;SDS011;11627;51.322;22.816;2022-07-09T08:28:46;0.80;;;0.40;;
22922;SDS011;11627;51.322;22.816;2022-07-09T08:31:15;2.92;;;0.68;;
22922;SDS011;11627;51.322;22.816;2022-07-09T08:33:42;0.90;;;0.55;;
22922;SDS011;11627;51.322;22.816;2022-07-09T08:36:10;2.42;;;0.40;;
22922;SDS011;11627;51.322;22.816;2022-07-09T08:38:37;2.88;;;0.68;;
22922;SDS011;11627;51.322;22.816;2022-07-09T08:41:04;1.75;;;0.50;;
22922;SDS011;11627;51.322;22.816;2022-07-09T08:43:32;2.05;;;0.65;;
22922;SDS011;11627;51.322;22.816;2022-07-09T08:46:01;0.57;;;0.40;;
22922;SDS011;11627;51.322;22.816;2022-07-09T08:48:28;0.93;;;0.63;;
22922;SDS011;11627;51.322;22.816;2022-07-09T08:51:00;3.58;;;0.68;;
22922;SDS011;11627;51.322;22.816;2022-07-09T08:53:28;2.28;;;0.80;;
22922;SDS011;11627;51.322;22.816;2022-07-09T08:55:56;3.22;;;0.60;;
22922;SDS011;11627;51.322;22.816;2022-07-09T08:58:24;2.72;;;0.70;;
22922;SDS011;11627;51.322;22.816;2022-07-09T09:00:51;4.32;;;0.60;;
22922;SDS011;11627;51.322;22.816;2022-07-09T09:03:18;2.08;;;0.70;;
22922;SDS011;11627;51.322;22.816;2022-07-09T09:05:59;2.83;;;0.80;;
22922;SDS011;11627;51.322;22.816;2022-07-09T09:08:34;2.97;;;0.57;;
22922;SDS011;11627;51.322;22.816;2022-07-09T09:11:06;1.50;;;0.73;;
22922;SDS011;11627;51.322;22.816;2022-07-09T09:13:46;1.50;;;1.00;;
22922;SDS011;11627;51.322;22.816;2022-07-09T09:16:15;4.53;;;1.08;;
22922;SDS011;11627;51.322;22.816;2022-07-09T09:18:44;4.15;;;1.30;;
22922;SDS011;11627;51.322;22.816;2022-07-09T09:21:16;4.55;;;1.35;;
22922;SDS011;11627;51.322;22.816;2022-07-09T09:23:46;3.50;;;1.35;;
22922;SDS011;11627;51.322;22.816;2022-07-09T09:26:25;3.25;;;2.03;;
22922;SDS011;11627;51.322;22.816;2022-07-09T09:28:56;7.97;;;2.65;;
22922;SDS011;11627;51.322;22.816;2022-07-09T09:31:29;8.65;;;3.13;;
22922;SDS011;11627;51.322;22.816;2022-07-09T09:34:20;8.50;;;3.63;;
22922;SDS011;11627;51.322;22.816;2022-07-09T09:36:52;12.02;;;4.22;;
22922;SDS011;11627;51.322;22.816;2022-07-09T09:39:30;12.00;;;5.45;;
22922;SDS011;11627;51.322;22.816;2022-07-09T09:42:01;12.23;;;5.43;;
22922;SDS011;11627;51.322;22.816;2022-07-09T09:44:39;10.75;;;4.35;;
22922;SDS011;11627;51.322;22.816;2022-07-09T09:47:09;8.80;;;4.03;;
22922;SDS011;11627;51.322;22.816;2022-07-09T09:49:42;6.60;;;2.50;;
22922;SDS011;11627;51.322;22.816;2022-07-09T09:52:10;5.63;;;3.40;;
22922;SDS011;11627;51.322;22.816;2022-07-09T09:54:37;6.38;;;3.78;;
22922;SDS011;11627;51.322;22.816;2022-07-09T09:57:11;6.35;;;4.05;;
22922;SDS011;11627;51.322;22.816;2022-07-09T09:59:43;6.22;;;3.78;;
22922;SDS011;11627;51.322;22.816;2022-07-09T10:02:12;5.95;;;2.75;;
22922;SDS011;11627;51.322;22.816;2022-07-09T10:04:40;5.80;;;2.40;;
22922;SDS011;11627;51.322;22.816;2022-07-09T10:07:10;6.13;;;2.60;;
22922;SDS011;11627;51.322;22.816;2022-07-09T10:10:04;7.93;;;2.88;;
22922;SDS011;11627;51.322;22.816;2022-07-09T10:12:36;6.43;;;2.70;;
22922;SDS011;11627;51.322;22.816;2022-07-09T10:15:36;9.25;;;2.90;;
22922;SDS011;11627;51.322;22.816;2022-07-09T10:18:08;5.50;;;3.15;;
22922;SDS011;11627;51.322;22.816;2022-07-09T10:20:38;4.18;;;2.45;;
22922;SDS011;11627;51.322;22.816;2022-07-09T10:23:09;9.68;;;2.47;;
22922;SDS011;11627;51.322;22.816;2022-07-09T10:25:51;10.35;;;2.40;;
22922;SDS011;11627;51.322;22.816;2022-07-09T10:28:22;4.95;;;2.20;;
22922;SDS011;11627;51.322;22.816;2022-07-09T10:30:51;7.25;;;2.40;;
22922;SDS011;11627;51.322;22.816;2022-07-09T10:36:19;8.38;;;3.00;;
22922;SDS011;11627;51.322;22.816;2022-07-09T10:38:56;9.27;;;3.13;;
22922;SDS011;11627;51.322;22.816;2022-07-09T10:41:23;2.15;;;1.50;;
22922;SDS011;11627;51.322;22.816;2022-07-09T10:43:50;3.55;;;2.22;;
22922;SDS011;11627;51.322;22.816;2022-07-09T10:46:18;4.65;;;2.13;;
22922;SDS011;11627;51.322;22.816;2022-07-09T10:48:45;3.00;;;2.28;;
22922;SDS011;11627;51.322;22.816;2022-07-09T10:51:17;18.33;;;2.95;;
22922;SDS011;11627;51.322;22.816;2022-07-09T10:53:44;3.30;;;2.50;;
22922;SDS011;11627;51.322;22.816;2022-07-09T10:56:21;8.07;;;2.58;;
22922;SDS011;11627;51.322;22.816;2022-07-09T10:58:49;4.00;;;2.22;;
22922;SDS011;11627;51.322;22.816;2022-07-09T11:01:21;3.65;;;1.88;;
22922;SDS011;11627;51.322;22.816;2022-07-09T11:03:51;3.42;;;1.70;;
22922;SDS011;11627;51.322;22.816;2022-07-09T11:06:18;5.90;;;1.60;;
22922;SDS011;11627;51.322;22.816;2022-07-09T11:08:45;2.28;;;1.25;;
22922;SDS011;11627;51.322;22.816;2022-07-09T11:11:12;2.72;;;1.00;;
22922;SDS011;11627;51.322;22.816;2022-07-09T11:13:50;1.02;;;0.93;;
22922;SDS011;11627;51.322;22.816;2022-07-09T11:16:24;2.17;;;1.02;;
22922;SDS011;11627;51.322;22.816;2022-07-09T11:18:53;1.55;;;1.00;;
22922;SDS011;11627;51.322;22.816;2022-07-09T11:21:26;4.07;;;1.25;;
22922;SDS011;11627;51.322;22.816;2022-07-09T11:23:53;7.18;;;1.25;;
22922;SDS011;11627;51.322;22.816;2022-07-09T11:26:20;4.40;;;1.90;;
22922;SDS011;11627;51.322;22.816;2022-07-09T11:28:47;6.70;;;2.75;;
22922;SDS011;11627;51.322;22.816;2022-07-09T11:31:13;4.63;;;3.08;;
22922;SDS011;11627;51.322;22.816;2022-07-09T11:33:40;3.70;;;1.80;;
22922;SDS011;11627;51.322;22.816;2022-07-09T11:36:25;2.28;;;1.70;;
22922;SDS011;11627;51.322;22.816;2022-07-09T11:39:03;2.15;;;1.42;;
22922;SDS011;11627;51.322;22.816;2022-07-09T11:41:45;3.55;;;1.30;;
22922;SDS011;11627;51.322;22.816;2022-07-09T11:44:19;6.05;;;1.25;;
22922;SDS011;11627;51.322;22.816;2022-07-09T11:47:09;2.00;;;1.08;;
22922;SDS011;11627;51.322;22.816;2022-07-09T11:49:45;1.52;;;1.10;;
22922;SDS011;11627;51.322;22.816;2022-07-09T11:55:06;4.75;;;1.60;;
22922;SDS011;11627;51.322;22.816;2022-07-09T11:57:33;1.27;;;1.00;;
22922;SDS011;11627;51.322;22.816;2022-07-09T12:00:03;3.65;;;1.38;;
22922;SDS011;11627;51.322;22.816;2022-07-09T12:02:33;2.58;;;1.40;;
22922;SDS011;11627;51.322;22.816;2022-07-09T12:05:04;2.75;;;1.10;;
22922;SDS011;11627;51.322;22.816;2022-07-09T12:07:38;1.02;;;0.82;;
22922;SDS011;11627;51.322;22.816;2022-07-09T12:10:07;1.15;;;0.85;;
22922;SDS011;11627;51.322;22.816;2022-07-09T12:12:36;0.90;;;0.77;;
22922;SDS011;11627;51.322;22.816;2022-07-09T12:15:04;2.65;;;0.98;;
22922;SDS011;11627;51.322;22.816;2022-07-09T12:17:32;1.30;;;0.80;;
22922;SDS011;11627;51.322;22.816;2022-07-09T12:19:59;1.10;;;1.00;;
22922;SDS011;11627;51.322;22.816;2022-07-09T12:22:26;4.13;;;1.08;;
22922;SDS011;11627;51.322;22.816;2022-07-09T12:24:52;3.88;;;0.82;;
22922;SDS011;11627;51.322;22.816;2022-07-09T12:27:19;1.13;;;0.80;;
22922;SDS011;11627;51.322;22.816;2022-07-09T12:29:46;0.98;;;0.80;;
22922;SDS011;11627;51.322;22.816;2022-07-09T12:32:13;0.73;;;0.70;;
22922;SDS011;11627;51.322;22.816;2022-07-09T12:34:40;2.17;;;0.52;;
22922;SDS011;11627;51.322;22.816;2022-07-09T12:37:07;0.75;;;0.68;;
22922;SDS011;11627;51.322;22.816;2022-07-09T12:39:34;1.20;;;0.68;;
22922;SDS011;11627;51.322;22.816;2022-07-09T12:42:01;1.25;;;0.50;;
22922;SDS011;11627;51.322;22.816;2022-07-09T12:44:29;0.90;;;0.50;;
22922;SDS011;11627;51.322;22.816;2022-07-09T12:46:55;0.60;;;0.40;;
22922;SDS011;11627;51.322;22.816;2022-07-09T12:49:23;0.45;;;0.45;;
22922;SDS011;11627;51.322;22.816;2022-07-09T12:51:50;0.55;;;0.50;;
22922;SDS011;11627;51.322;22.816;2022-07-09T12:54:17;0.80;;;0.40;;
22922;SDS011;11627;51.322;22.816;2022-07-09T12:56:43;3.15;;;0.40;;
22922;SDS011;11627;51.322;22.816;2022-07-09T12:59:10;2.42;;;0.47;;
22922;SDS011;11627;51.322;22.816;2022-07-09T13:01:38;0.50;;;0.32;;
22922;SDS011;11627;51.322;22.816;2022-07-09T13:04:05;0.55;;;0.40;;
22922;SDS011;11627;51.322;22.816;2022-07-09T13:06:32;0.75;;;0.40;;
22922;SDS011;11627;51.322;22.816;2022-07-09T13:08:59;1.60;;;0.40;;
22922;SDS011;11627;51.322;22.816;2022-07-09T13:11:30;0.90;;;0.50;;
22922;SDS011;11627;51.322;22.816;2022-07-09T13:13:58;2.70;;;0.50;;
22922;SDS011;11627;51.322;22.816;2022-07-09T13:16:25;1.00;;;0.50;;
22922;SDS011;11627;51.322;22.816;2022-07-09T13:18:51;0.60;;;0.60;;
22922;SDS011;11627;51.322;22.816;2022-07-09T13:21:18;0.65;;;0.60;;
22922;SDS011;11627;51.322;22.816;2022-07-09T13:23:44;5.97;;;0.80;;
22922;SDS011;11627;51.322;22.816;2022-07-09T13:26:11;0.50;;;0.50;;
22922;SDS011;11627;51.322;22.816;2022-07-09T13:28:37;0.98;;;0.40;;
22922;SDS011;11627;51.322;22.816;2022-07-09T13:31:03;0.50;;;0.50;;
22922;SDS011;11627;51.322;22.816;2022-07-09T13:33:31;0.95;;;0.50;;
22922;SDS011;11627;51.322;22.816;2022-07-09T13:36:00;2.58;;;0.45;;
22922;SDS011;11627;51.322;22.816;2022-07-09T13:38:28;2.15;;;0.60;;
22922;SDS011;11627;51.322;22.816;2022-07-09T13:40:54;2.50;;;0.60;;
22922;SDS011;11627;51.322;22.816;2022-07-09T13:43:20;0.88;;;0.52;;
22922;SDS011;11627;51.322;22.816;2022-07-09T13:45:49;3.42;;;0.70;;
22922;SDS011;11627;51.322;22.816;2022-07-09T13:48:15;1.35;;;0.60;;
22922;SDS011;11627;51.322;22.816;2022-07-09T13:50:40;2.78;;;0.70;;
22922;SDS011;11627;51.322;22.816;2022-07-09T13:53:06;0.80;;;0.80;;
22922;SDS011;11627;51.322;22.816;2022-07-09T13:55:31;2.80;;;0.60;;
22922;SDS011;11627;51.322;22.816;2022-07-09T13:57:57;1.55;;;0.70;;
22922;SDS011;11627;51.322;22.816;2022-07-09T14:00:23;0.95;;;0.60;;
22922;SDS011;11627;51.322;22.816;2022-07-09T14:02:49;0.60;;;0.60;;
22922;SDS011;11627;51.322;22.816;2022-07-09T14:05:15;0.52;;;0.50;;
22922;SDS011;11627;51.322;22.816;2022-07-09T14:07:41;3.55;;;0.70;;
22922;SDS011;11627;51.322;22.816;2022-07-09T14:10:07;1.42;;;0.70;;
22922;SDS011;11627;51.322;22.816;2022-07-09T14:12:33;2.22;;;0.90;;
22922;SDS011;11627;51.322;22.816;2022-07-09T14:14:59;2.63;;;0.85;;
22922;SDS011;11627;51.322;22.816;2022-07-09T14:17:25;1.05;;;0.73;;
22922;SDS011;11627;51.322;22.816;2022-07-09T14:19:51;1.20;;;0.68;;
22922;SDS011;11627;51.322;22.816;2022-07-09T14:22:17;2.72;;;0.82;;
22922;SDS011;11627;51.322;22.816;2022-07-09T14:24:43;1.92;;;0.70;;
22922;SDS011;11627;51.322;22.816;2022-07-09T14:27:09;0.85;;;0.57;;
22922;SDS011;11627;51.322;22.816;2022-07-09T14:29:34;1.45;;;0.73;;
22922;SDS011;11627;51.322;22.816;2022-07-09T14:32:00;0.85;;;0.77;;
22922;SDS011;11627;51.322;22.816;2022-07-09T14:34:27;2.47;;;0.80;;
22922;SDS011;11627;51.322;22.816;2022-07-09T14:36:52;1.05;;;0.80;;
22922;SDS011;11627;51.322;22.816;2022-07-09T14:39:19;1.60;;;0.82;;
22922;SDS011;11627;51.322;22.816;2022-07-09T14:41:46;3.22;;;0.80;;
22922;SDS011;11627;51.322;22.816;2022-07-09T14:44:12;2.10;;;0.90;;